sensor_id;sensor_type;location;lat;lon;timestamp;P1;durP1;ratioP1;P2;durP2;ratioP2
50363;SDS011;36272;59.400;17.982;2023-04-24T00:01:25;6.50;;;4.95;;
50363;SDS011;36272;59.400;17.982;2023-04-24T00:06:26;7.03;;;4.85;;
50363;SDS011;36272;59.400;17.982;2023-04-24T00:11:37;9.02;;;4.82;;
50363;SDS011;36272;59.400;17.982;2023-04-24T00:16:39;9.10;;;4.53;;
50363;SDS011;36272;59.400;17.982;2023-04-24T00:21:40;11.02;;;4.65;;
50363;SDS011;36272;59.400;17.982;2023-04-24T00:26:42;7.68;;;4.75;;
50363;SDS011;36272;59.400;17.982;2023-04-24T00:31:44;10.43;;;4.60;;
50363;SDS011;36272;59.400;17.982;2023-04-24T00:36:54;10.05;;;4.88;;
50363;SDS011;36272;59.400;17.982;2023-04-24T00:42:01;9.15;;;4.88;;
50363;SDS011;36272;59.400;17.982;2023-04-24T00:47:03;7.65;;;4.03;;
50363;SDS011;36272;59.400;17.982;2023-04-24T00:52:08;9.23;;;3.90;;
50363;SDS011;36272;59.400;17.982;2023-04-24T00:57:10;4.13;;;3.25;;
50363;SDS011;36272;59.400;17.982;2023-04-24T01:02:14;6.75;;;3.30;;
50363;SDS011;36272;59.400;17.982;2023-04-24T01:07:18;4.00;;;3.03;;
50363;SDS011;36272;59.400;17.982;2023-04-24T01:12:22;5.53;;;2.90;;
50363;SDS011;36272;59.400;17.982;2023-04-24T01:17:23;4.40;;;2.63;;
50363;SDS011;36272;59.400;17.982;2023-04-24T01:22:25;4.60;;;3.00;;
50363;SDS011;36272;59.400;17.982;2023-04-24T01:27:27;8.27;;;2.70;;
50363;SDS011;36272;59.400;17.982;2023-04-24T01:32:34;9.40;;;3.25;;
50363;SDS011;36272;59.400;17.982;2023-04-24T01:37:37;9.43;;;3.13;;
50363;SDS011;36272;59.400;17.982;2023-04-24T01:42:40;10.85;;;3.20;;
50363;SDS011;36272;59.400;17.982;2023-04-24T01:47:43;7.82;;;3.10;;
50363;SDS011;36272;59.400;17.982;2023-04-24T01:52:53;15.20;;;3.90;;
50363;SDS011;36272;59.400;17.982;2023-04-24T01:57:56;10.95;;;3.60;;
50363;SDS011;36272;59.400;17.982;2023-04-24T02:03:00;14.57;;;4.28;;
50363;SDS011;36272;59.400;17.982;2023-04-24T02:08:03;13.17;;;4.20;;
50363;SDS011;36272;59.400;17.982;2023-04-24T02:13:04;13.13;;;4.40;;
50363;SDS011;36272;59.400;17.982;2023-04-24T02:18:06;11.90;;;3.80;;
50363;SDS011;36272;59.400;17.982;2023-04-24T02:23:08;8.77;;;3.42;;
50363;SDS011;36272;59.400;17.982;2023-04-24T02:28:10;7.95;;;3.13;;
50363;SDS011;36272;59.400;17.982;2023-04-24T02:33:14;13.73;;;4.43;;
50363;SDS011;36272;59.400;17.982;2023-04-24T02:38:18;14.05;;;4.63;;
50363;SDS011;36272;59.400;17.982;2023-04-24T02:43:20;12.77;;;4.22;;
50363;SDS011;36272;59.400;17.982;2023-04-24T02:48:22;14.75;;;4.28;;
50363;SDS011;36272;59.400;17.982;2023-04-24T02:53:24;17.90;;;5.35;;
50363;SDS011;36272;59.400;17.982;2023-04-24T02:58:26;13.98;;;4.95;;
50363;SDS011;36272;59.400;17.982;2023-04-24T03:03:28;18.02;;;4.80;;
50363;SDS011;36272;59.400;17.982;2023-04-24T03:08:29;14.93;;;4.88;;
50363;SDS011;36272;59.400;17.982;2023-04-24T03:13:34;14.52;;;4.85;;
50363;SDS011;36272;59.400;17.982;2023-04-24T03:18:36;11.30;;;4.57;;
50363;SDS011;36272;59.400;17.982;2023-04-24T03:23:37;10.80;;;4.53;;
50363;SDS011;36272;59.400;17.982;2023-04-24T03:28:45;14.60;;;5.32;;
50363;SDS011;36272;59.400;17.982;2023-04-24T03:33:52;10.60;;;4.20;;
50363;SDS011;36272;59.400;17.982;2023-04-24T03:38:53;11.85;;;4.70;;
50363;SDS011;36272;59.400;17.982;2023-04-24T03:43:55;11.48;;;4.68;;
50363;SDS011;36272;59.400;17.982;2023-04-24T03:48:57;12.95;;;5.03;;
50363;SDS011;36272;59.400;17.982;2023-04-24T03:53:59;11.75;;;4.38;;
50363;SDS011;36272;59.400;17.982;2023-04-24T03:59:00;13.05;;;4.40;;
50363;SDS011;36272;59.400;17.982;2023-04-24T04:04:04;11.25;;;4.20;;
50363;SDS011;36272;59.400;17.982;2023-04-24T04:09:06;10.20;;;3.97;;
50363;SDS011;36272;59.400;17.982;2023-04-24T04:14:08;11.95;;;4.13;;
50363;SDS011;36272;59.400;17.982;2023-04-24T04:19:10;11.10;;;4.45;;
50363;SDS011;36272;59.400;17.982;2023-04-24T04:24:11;11.35;;;4.72;;
50363;SDS011;36272;59.400;17.982;2023-04-24T04:29:13;14.02;;;4.60;;
50363;SDS011;36272;59.400;17.982;2023-04-24T04:34:16;9.82;;;4.13;;
50363;SDS011;36272;59.400;17.982;2023-04-24T04:39:18;11.65;;;4.00;;
50363;SDS011;36272;59.400;17.982;2023-04-24T04:44:19;10.75;;;4.25;;
50363;SDS011;36272;59.400;17.982;2023-04-24T04:49:21;12.48;;;4.82;;
50363;SDS011;36272;59.400;17.982;2023-04-24T04:54:24;9.48;;;4.10;;
50363;SDS011;36272;59.400;17.982;2023-04-24T04:59:26;12.63;;;5.30;;
50363;SDS011;36272;59.400;17.982;2023-04-24T05:04:31;13.85;;;4.45;;
50363;SDS011;36272;59.400;17.982;2023-04-24T05:09:32;14.05;;;4.45;;
50363;SDS011;36272;59.400;17.982;2023-04-24T05:14:36;16.35;;;5.15;;
50363;SDS011;36272;59.400;17.982;2023-04-24T05:19:41;16.77;;;5.40;;
50363;SDS011;36272;59.400;17.982;2023-04-24T05:24:48;13.43;;;5.38;;
50363;SDS011;36272;59.400;17.982;2023-04-24T05:29:55;15.00;;;5.55;;
50363;SDS011;36272;59.400;17.982;2023-04-24T05:34:57;16.10;;;4.82;;
50363;SDS011;36272;59.400;17.982;2023-04-24T05:39:58;11.48;;;4.78;;
50363;SDS011;36272;59.400;17.982;2023-04-24T05:45:03;12.65;;;5.00;;
50363;SDS011;36272;59.400;17.982;2023-04-24T05:50:08;13.13;;;4.97;;
50363;SDS011;36272;59.400;17.982;2023-04-24T05:55:10;14.75;;;5.80;;
50363;SDS011;36272;59.400;17.982;2023-04-24T06:00:12;15.98;;;5.88;;
50363;SDS011;36272;59.400;17.982;2023-04-24T06:05:14;15.57;;;6.85;;
50363;SDS011;36272;59.400;17.982;2023-04-24T06:10:19;15.70;;;7.10;;
50363;SDS011;36272;59.400;17.982;2023-04-24T06:15:24;14.30;;;6.80;;
50363;SDS011;36272;59.400;17.982;2023-04-24T06:20:25;14.65;;;6.85;;
50363;SDS011;36272;59.400;17.982;2023-04-24T06:25:31;16.33;;;7.07;;
50363;SDS011;36272;59.400;17.982;2023-04-24T06:30:33;14.50;;;7.10;;
50363;SDS011;36272;59.400;17.982;2023-04-24T06:35:35;13.80;;;6.40;;
50363;SDS011;36272;59.400;17.982;2023-04-24T06:40:39;10.82;;;5.25;;
50363;SDS011;36272;59.400;17.982;2023-04-24T06:45:40;11.98;;;5.85;;
50363;SDS011;36272;59.400;17.982;2023-04-24T06:50:47;11.40;;;5.50;;
50363;SDS011;36272;59.400;17.982;2023-04-24T06:55:51;9.00;;;4.40;;
50363;SDS011;36272;59.400;17.982;2023-04-24T07:00:53;10.30;;;4.72;;
50363;SDS011;36272;59.400;17.982;2023-04-24T07:05:54;10.38;;;4.53;;
50363;SDS011;36272;59.400;17.982;2023-04-24T07:10:56;11.38;;;3.90;;
50363;SDS011;36272;59.400;17.982;2023-04-24T07:16:03;9.85;;;3.63;;
50363;SDS011;36272;59.400;17.982;2023-04-24T07:27:35;7.55;;;2.95;;
50363;SDS011;36272;59.400;17.982;2023-04-24T07:33:58;7.03;;;3.35;;
50363;SDS011;36272;59.400;17.982;2023-04-24T07:40:01;5.97;;;3.67;;
50363;SDS011;36272;59.400;17.982;2023-04-24T07:58:14;9.38;;;4.00;;
50363;SDS011;36272;59.400;17.982;2023-04-24T08:03:21;8.02;;;3.72;;
50363;SDS011;36272;59.400;17.982;2023-04-24T08:08:22;7.20;;;3.50;;
50363;SDS011;36272;59.400;17.982;2023-04-24T08:13:28;9.60;;;2.90;;
50363;SDS011;36272;59.400;17.982;2023-04-24T08:18:29;8.95;;;3.13;;
50363;SDS011;36272;59.400;17.982;2023-04-24T08:23:31;6.32;;;2.75;;
50363;SDS011;36272;59.400;17.982;2023-04-24T08:28:33;7.75;;;3.38;;
50363;SDS011;36272;59.400;17.982;2023-04-24T08:33:34;6.18;;;3.00;;
50363;SDS011;36272;59.400;17.982;2023-04-24T08:38:36;6.45;;;3.00;;
50363;SDS011;36272;59.400;17.982;2023-04-24T08:43:45;5.65;;;3.00;;
50363;SDS011;36272;59.400;17.982;2023-04-24T08:48:51;4.97;;;3.50;;
50363;SDS011;36272;59.400;17.982;2023-04-24T08:53:53;5.13;;;3.15;;
50363;SDS011;36272;59.400;17.982;2023-04-24T08:58:55;4.25;;;2.80;;
50363;SDS011;36272;59.400;17.982;2023-04-24T09:04:04;5.17;;;2.90;;
50363;SDS011;36272;59.400;17.982;2023-04-24T09:14:09;4.28;;;2.40;;
50363;SDS011;36272;59.400;17.982;2023-04-24T09:19:12;4.60;;;2.72;;
50363;SDS011;36272;59.400;17.982;2023-04-24T09:24:15;3.40;;;2.60;;
50363;SDS011;36272;59.400;17.982;2023-04-24T09:29:18;5.37;;;2.30;;
50363;SDS011;36272;59.400;17.982;2023-04-24T09:34:24;3.92;;;2.42;;
50363;SDS011;36272;59.400;17.982;2023-04-24T09:39:27;3.92;;;2.40;;
50363;SDS011;36272;59.400;17.982;2023-04-24T09:44:28;4.30;;;1.98;;
50363;SDS011;36272;59.400;17.982;2023-04-24T09:49:31;3.03;;;2.20;;
50363;SDS011;36272;59.400;17.982;2023-04-24T09:54:37;4.55;;;2.83;;
50363;SDS011;36272;59.400;17.982;2023-04-24T09:59:42;4.28;;;2.70;;
50363;SDS011;36272;59.400;17.982;2023-04-24T10:04:56;4.80;;;2.60;;
50363;SDS011;36272;59.400;17.982;2023-04-24T10:10:00;4.03;;;2.17;;
50363;SDS011;36272;59.400;17.982;2023-04-24T10:15:02;3.83;;;2.10;;
50363;SDS011;36272;59.400;17.982;2023-04-24T10:20:07;4.65;;;2.70;;
50363;SDS011;36272;59.400;17.982;2023-04-24T10:25:10;4.13;;;2.35;;
50363;SDS011;36272;59.400;17.982;2023-04-24T10:30:13;6.43;;;2.40;;
50363;SDS011;36272;59.400;17.982;2023-04-24T10:35:15;2.97;;;2.13;;
50363;SDS011;36272;59.400;17.982;2023-04-24T10:40:24;3.80;;;2.10;;
50363;SDS011;36272;59.400;17.982;2023-04-24T10:45:27;5.25;;;2.30;;
50363;SDS011;36272;59.400;17.982;2023-04-24T11:01:06;5.00;;;2.10;;
50363;SDS011;36272;59.400;17.982;2023-04-24T11:06:12;3.47;;;2.33;;
50363;SDS011;36272;59.400;17.982;2023-04-24T11:11:14;4.43;;;2.30;;
50363;SDS011;36272;59.400;17.982;2023-04-24T11:16:21;5.05;;;2.40;;
50363;SDS011;36272;59.400;17.982;2023-04-24T11:21:48;5.38;;;2.28;;
50363;SDS011;36272;59.400;17.982;2023-04-24T11:27:04;4.10;;;2.47;;
50363;SDS011;36272;59.400;17.982;2023-04-24T11:37:19;6.65;;;2.20;;
50363;SDS011;36272;59.400;17.982;2023-04-24T11:42:22;2.58;;;1.98;;
50363;SDS011;36272;59.400;17.982;2023-04-24T11:47:28;2.83;;;2.00;;
50363;SDS011;36272;59.400;17.982;2023-04-24T11:52:39;6.35;;;2.33;;
50363;SDS011;36272;59.400;17.982;2023-04-24T11:57:42;4.53;;;2.50;;
50363;SDS011;36272;59.400;17.982;2023-04-24T12:03:07;4.40;;;2.40;;
50363;SDS011;36272;59.400;17.982;2023-04-24T12:08:12;8.73;;;2.63;;
50363;SDS011;36272;59.400;17.982;2023-04-24T12:13:29;4.88;;;2.65;;
50363;SDS011;36272;59.400;17.982;2023-04-24T12:18:32;3.72;;;2.47;;
50363;SDS011;36272;59.400;17.982;2023-04-24T12:23:34;9.35;;;3.38;;
50363;SDS011;36272;59.400;17.982;2023-04-24T12:28:37;3.92;;;2.95;;
50363;SDS011;36272;59.400;17.982;2023-04-24T12:33:42;6.18;;;2.92;;
50363;SDS011;36272;59.400;17.982;2023-04-24T12:38:44;9.32;;;3.65;;
50363;SDS011;36272;59.400;17.982;2023-04-24T12:43:51;8.20;;;3.30;;
50363;SDS011;36272;59.400;17.982;2023-04-24T12:48:54;5.40;;;3.30;;
50363;SDS011;36272;59.400;17.982;2023-04-24T12:53:55;7.53;;;3.78;;
50363;SDS011;36272;59.400;17.982;2023-04-24T12:58:57;21.30;;;4.40;;
50363;SDS011;36272;59.400;17.982;2023-04-24T13:04:01;15.95;;;3.90;;
50363;SDS011;36272;59.400;17.982;2023-04-24T13:09:03;12.77;;;3.90;;
50363;SDS011;36272;59.400;17.982;2023-04-24T13:14:05;5.35;;;3.30;;
50363;SDS011;36272;59.400;17.982;2023-04-24T13:19:06;5.45;;;3.75;;
50363;SDS011;36272;59.400;17.982;2023-04-24T13:24:11;11.27;;;3.95;;
50363;SDS011;36272;59.400;17.982;2023-04-24T13:29:14;6.50;;;3.55;;
50363;SDS011;36272;59.400;17.982;2023-04-24T13:34:16;6.40;;;3.55;;
50363;SDS011;36272;59.400;17.982;2023-04-24T13:39:18;9.02;;;3.53;;
50363;SDS011;36272;59.400;17.982;2023-04-24T13:44:20;21.70;;;4.22;;
50363;SDS011;36272;59.400;17.982;2023-04-24T13:49:24;9.13;;;3.90;;
50363;SDS011;36272;59.400;17.982;2023-04-24T13:54:27;7.45;;;4.10;;
50363;SDS011;36272;59.400;17.982;2023-04-24T13:59:28;10.13;;;3.00;;
50363;SDS011;36272;59.400;17.982;2023-04-24T14:04:30;6.60;;;3.63;;
50363;SDS011;36272;59.400;17.982;2023-04-24T14:09:32;14.65;;;3.30;;
50363;SDS011;36272;59.400;17.982;2023-04-24T14:14:33;5.38;;;3.40;;
50363;SDS011;36272;59.400;17.982;2023-04-24T14:19:35;7.40;;;3.72;;
50363;SDS011;36272;59.400;17.982;2023-04-24T14:24:40;8.20;;;3.70;;
50363;SDS011;36272;59.400;17.982;2023-04-24T14:29:44;7.22;;;3.85;;
50363;SDS011;36272;59.400;17.982;2023-04-24T14:34:55;13.70;;;4.30;;
50363;SDS011;36272;59.400;17.982;2023-04-24T14:39:57;6.95;;;4.53;;
50363;SDS011;36272;59.400;17.982;2023-04-24T14:44:59;8.38;;;4.88;;
50363;SDS011;36272;59.400;17.982;2023-04-24T14:50:00;8.35;;;4.03;;
50363;SDS011;36272;59.400;17.982;2023-04-24T14:55:02;10.95;;;4.50;;
50363;SDS011;36272;59.400;17.982;2023-04-24T15:00:04;8.10;;;4.40;;
50363;SDS011;36272;59.400;17.982;2023-04-24T15:05:09;8.43;;;4.32;;
50363;SDS011;36272;59.400;17.982;2023-04-24T15:10:11;7.57;;;4.45;;
50363;SDS011;36272;59.400;17.982;2023-04-24T15:15:13;7.88;;;4.20;;
50363;SDS011;36272;59.400;17.982;2023-04-24T15:20:15;6.40;;;3.97;;
50363;SDS011;36272;59.400;17.982;2023-04-24T15:25:17;6.90;;;4.78;;
50363;SDS011;36272;59.400;17.982;2023-04-24T15:30:18;10.38;;;5.22;;
50363;SDS011;36272;59.400;17.982;2023-04-24T15:35:20;10.85;;;5.28;;
50363;SDS011;36272;59.400;17.982;2023-04-24T15:40:22;7.43;;;4.60;;
50363;SDS011;36272;59.400;17.982;2023-04-24T15:50:36;7.68;;;4.32;;
50363;SDS011;36272;59.400;17.982;2023-04-24T15:55:38;7.72;;;4.30;;
50363;SDS011;36272;59.400;17.982;2023-04-24T16:00:42;5.90;;;4.38;;
50363;SDS011;36272;59.400;17.982;2023-04-24T16:05:47;9.23;;;5.07;;
50363;SDS011;36272;59.400;17.982;2023-04-24T16:10:53;13.55;;;4.20;;
50363;SDS011;36272;59.400;17.982;2023-04-24T16:15:57;10.35;;;4.57;;
50363;SDS011;36272;59.400;17.982;2023-04-24T16:21:03;8.77;;;4.50;;
50363;SDS011;36272;59.400;17.982;2023-04-24T16:26:05;6.97;;;4.05;;
50363;SDS011;36272;59.400;17.982;2023-04-24T16:31:22;9.25;;;4.15;;
50363;SDS011;36272;59.400;17.982;2023-04-24T16:36:25;5.95;;;3.95;;
50363;SDS011;36272;59.400;17.982;2023-04-24T16:41:27;6.03;;;3.80;;
50363;SDS011;36272;59.400;17.982;2023-04-24T16:46:28;9.50;;;4.30;;
50363;SDS011;36272;59.400;17.982;2023-04-24T16:51:30;8.15;;;3.67;;
50363;SDS011;36272;59.400;17.982;2023-04-24T16:56:33;26.38;;;4.35;;
50363;SDS011;36272;59.400;17.982;2023-04-24T17:01:34;8.05;;;3.90;;
50363;SDS011;36272;59.400;17.982;2023-04-24T17:06:36;7.43;;;3.80;;
50363;SDS011;36272;59.400;17.982;2023-04-24T17:11:41;7.50;;;3.80;;
50363;SDS011;36272;59.400;17.982;2023-04-24T17:17:01;9.02;;;3.90;;
50363;SDS011;36272;59.400;17.982;2023-04-24T17:22:06;4.10;;;3.65;;
50363;SDS011;36272;59.400;17.982;2023-04-24T17:27:11;6.75;;;3.17;;
50363;SDS011;36272;59.400;17.982;2023-04-24T17:32:16;8.93;;;4.45;;
50363;SDS011;36272;59.400;17.982;2023-04-24T17:37:24;5.85;;;4.20;;
50363;SDS011;36272;59.400;17.982;2023-04-24T17:42:30;8.75;;;4.10;;
50363;SDS011;36272;59.400;17.982;2023-04-24T17:47:33;9.65;;;4.38;;
50363;SDS011;36272;59.400;17.982;2023-04-24T17:52:35;11.13;;;4.43;;
50363;SDS011;36272;59.400;17.982;2023-04-24T17:57:40;7.50;;;4.72;;
50363;SDS011;36272;59.400;17.982;2023-04-24T18:02:42;7.43;;;5.10;;
50363;SDS011;36272;59.400;17.982;2023-04-24T18:07:51;8.10;;;5.60;;
50363;SDS011;36272;59.400;17.982;2023-04-24T18:12:52;7.53;;;4.75;;
50363;SDS011;36272;59.400;17.982;2023-04-24T18:17:54;9.40;;;5.03;;
50363;SDS011;36272;59.400;17.982;2023-04-24T18:22:56;10.30;;;4.28;;
50363;SDS011;36272;59.400;17.982;2023-04-24T18:33:27;9.65;;;4.97;;
50363;SDS011;36272;59.400;17.982;2023-04-24T18:38:28;10.10;;;5.53;;
50363;SDS011;36272;59.400;17.982;2023-04-24T18:43:30;8.50;;;4.40;;
50363;SDS011;36272;59.400;17.982;2023-04-24T18:48:32;8.75;;;4.15;;
50363;SDS011;36272;59.400;17.982;2023-04-24T18:53:34;9.98;;;4.30;;
50363;SDS011;36272;59.400;17.982;2023-04-24T18:58:36;8.80;;;4.60;;
50363;SDS011;36272;59.400;17.982;2023-04-24T19:03:37;10.10;;;4.68;;
50363;SDS011;36272;59.400;17.982;2023-04-24T19:08:39;9.55;;;4.32;;
50363;SDS011;36272;59.400;17.982;2023-04-24T19:13:43;7.20;;;4.35;;
50363;SDS011;36272;59.400;17.982;2023-04-24T19:18:47;6.57;;;4.70;;
50363;SDS011;36272;59.400;17.982;2023-04-24T19:23:49;9.02;;;4.75;;
50363;SDS011;36272;59.400;17.982;2023-04-24T19:28:52;10.38;;;4.68;;
50363;SDS011;36272;59.400;17.982;2023-04-24T19:33:57;8.33;;;4.63;;
50363;SDS011;36272;59.400;17.982;2023-04-24T19:39:01;9.95;;;4.75;;
50363;SDS011;36272;59.400;17.982;2023-04-24T19:44:04;7.57;;;4.40;;
50363;SDS011;36272;59.400;17.982;2023-04-24T19:49:05;8.32;;;4.20;;
50363;SDS011;36272;59.400;17.982;2023-04-24T19:54:07;9.20;;;4.57;;
50363;SDS011;36272;59.400;17.982;2023-04-24T19:59:09;8.07;;;3.83;;
50363;SDS011;36272;59.400;17.982;2023-04-24T20:04:10;6.93;;;4.07;;
50363;SDS011;36272;59.400;17.982;2023-04-24T20:09:12;6.05;;;3.67;;
50363;SDS011;36272;59.400;17.982;2023-04-24T20:14:14;6.55;;;3.55;;
50363;SDS011;36272;59.400;17.982;2023-04-24T20:19:16;10.63;;;4.32;;
50363;SDS011;36272;59.400;17.982;2023-04-24T20:24:18;5.90;;;3.72;;
50363;SDS011;36272;59.400;17.982;2023-04-24T20:29:19;7.45;;;3.85;;
50363;SDS011;36272;59.400;17.982;2023-04-24T20:34:21;6.43;;;3.45;;
50363;SDS011;36272;59.400;17.982;2023-04-24T20:39:23;6.97;;;3.88;;
50363;SDS011;36272;59.400;17.982;2023-04-24T20:44:25;9.60;;;4.10;;
50363;SDS011;36272;59.400;17.982;2023-04-24T20:49:27;9.30;;;4.20;;
50363;SDS011;36272;59.400;17.982;2023-04-24T20:54:28;7.78;;;4.45;;
50363;SDS011;36272;59.400;17.982;2023-04-24T20:59:30;8.32;;;4.03;;
50363;SDS011;36272;59.400;17.982;2023-04-24T21:04:31;8.25;;;4.97;;
50363;SDS011;36272;59.400;17.982;2023-04-24T21:09:38;6.25;;;3.97;;
50363;SDS011;36272;59.400;17.982;2023-04-24T21:14:40;6.13;;;4.35;;
50363;SDS011;36272;59.400;17.982;2023-04-24T21:19:42;5.93;;;4.20;;
50363;SDS011;36272;59.400;17.982;2023-04-24T21:24:49;6.55;;;4.47;;
50363;SDS011;36272;59.400;17.982;2023-04-24T21:29:50;7.20;;;4.60;;
50363;SDS011;36272;59.400;17.982;2023-04-24T21:34:54;9.93;;;4.80;;
50363;SDS011;36272;59.400;17.982;2023-04-24T21:39:59;7.35;;;4.70;;
50363;SDS011;36272;59.400;17.982;2023-04-24T21:45:00;9.85;;;5.70;;
50363;SDS011;36272;59.400;17.982;2023-04-24T21:50:05;9.20;;;4.72;;
50363;SDS011;36272;59.400;17.982;2023-04-24T21:55:07;8.18;;;4.93;;
50363;SDS011;36272;59.400;17.982;2023-04-24T22:00:09;10.75;;;5.70;;
50363;SDS011;36272;59.400;17.982;2023-04-24T22:05:11;8.80;;;5.38;;
50363;SDS011;36272;59.400;17.982;2023-04-24T22:10:17;9.13;;;5.45;;
50363;SDS011;36272;59.400;17.982;2023-04-24T22:15:19;7.88;;;5.22;;
50363;SDS011;36272;59.400;17.982;2023-04-24T22:20:22;12.65;;;6.03;;
50363;SDS011;36272;59.400;17.982;2023-04-24T22:25:24;6.65;;;4.78;;
50363;SDS011;36272;59.400;17.982;2023-04-24T22:30:26;5.85;;;4.25;;
50363;SDS011;36272;59.400;17.982;2023-04-24T22:35:27;8.00;;;4.82;;
50363;SDS011;36272;59.400;17.982;2023-04-24T22:40:29;8.23;;;5.25;;
50363;SDS011;36272;59.400;17.982;2023-04-24T22:45:31;6.55;;;4.85;;
50363;SDS011;36272;59.400;17.982;2023-04-24T22:50:33;7.38;;;4.88;;
50363;SDS011;36272;59.400;17.982;2023-04-24T22:55:35;7.97;;;4.82;;
50363;SDS011;36272;59.400;17.982;2023-04-24T23:00:36;7.57;;;4.68;;
50363;SDS011;36272;59.400;17.982;2023-04-24T23:05:38;8.70;;;4.85;;
50363;SDS011;36272;59.400;17.982;2023-04-24T23:10:44;5.88;;;4.38;;
50363;SDS011;36272;59.400;17.982;2023-04-24T23:15:47;9.75;;;4.80;;
50363;SDS011;36272;59.400;17.982;2023-04-24T23:20:49;5.07;;;4.18;;
50363;SDS011;36272;59.400;17.982;2023-04-24T23:25:51;6.82;;;3.97;;
50363;SDS011;36272;59.400;17.982;2023-04-24T23:30:53;5.82;;;4.20;;
50363;SDS011;36272;59.400;17.982;2023-04-24T23:35:54;6.47;;;4.07;;
50363;SDS011;36272;59.400;17.982;2023-04-24T23:40:57;6.60;;;4.28;;
50363;SDS011;36272;59.400;17.982;2023-04-24T23:45:58;5.80;;;4.13;;
50363;SDS011;36272;59.400;17.982;2023-04-24T23:51:00;8.73;;;4.18;;
50363;SDS011;36272;59.400;17.982;2023-04-24T23:56:02;8.73;;;4.72;;
